Time;durP1;ratioP1;P1;durP2;ratioP2;P2;SDS_P1;SDS_P2;PMS_P1;PMS_P2;Temp;Humidity;BMP_temperature;BMP_pressure;BME280_temperature;BME280_humidity;BME280_pressure;Samples;Min_cycle;Max_cycle;Signal;HPM_P1;HPM_P2
2022/09/12 00:01:19;;;;;;;0.40;0.40;;;;;;;14.77;86.05;99061.63;4486138;32;33915;-71
2022/09/12 00:03:51;;;;;;;1.08;1.02;;;;;;;15.24;83.13;99068.81;4472129;32;35167;-72
2022/09/12 00:06:22;;;;;;;0.60;0.60;;;;;;;15.15;83.10;99063.87;4486353;32;35083;-72
2022/09/12 00:08:54;;;;;;;0.50;0.50;;;;;;;14.62;85.88;99053.41;4486316;32;34332;-72
2022/09/12 00:11:21;;;;;;;0.35;0.35;;;;;;;14.88;85.04;99058.66;4472052;32;33981;-71
2022/09/12 00:13:49;;;;;;;0.50;0.50;;;;;;;14.89;84.65;99057.72;4486120;32;35421;-73
2022/09/12 00:16:22;;;;;;;0.50;0.50;;;;;;;14.78;85.70;99052.84;4485870;32;34393;-82
2022/09/12 00:18:51;;;;;;;0.93;0.93;;;;;;;15.20;82.88;99059.34;4486228;32;33414;-73
2022/09/12 00:21:21;;;;;;;0.30;0.30;;;;;;;14.87;83.82;99056.91;4485846;32;34006;-72
2022/09/12 00:23:49;;;;;;;0.40;0.40;;;;;;;15.23;82.86;99064.47;4486020;32;34593;-72
2022/09/12 00:26:18;;;;;;;0.60;0.60;;;;;;;15.00;84.43;99064.37;4470880;32;35096;-79
2022/09/12 00:28:47;;;;;;;0.88;0.75;;;;;;;15.40;81.96;99068.28;4485873;32;34334;-72
2022/09/12 00:31:18;;;;;;;0.40;0.40;;;;;;;15.26;83.16;99077.47;4485925;32;33896;-72
2022/09/12 00:33:46;;;;;;;0.80;0.80;;;;;;;14.74;85.41;99073.97;4471850;32;36006;-72
2022/09/12 00:36:17;;;;;;;0.98;0.98;;;;;;;14.88;85.36;99063.87;4485914;32;34373;-72
2022/09/12 00:38:46;;;;;;;0.40;0.40;;;;;;;14.73;86.14;99065.22;4471897;32;33638;-73
2022/09/12 00:41:20;;;;;;;0.47;0.47;;;;;;;14.67;86.29;99061.97;4485783;32;33883;-73
2022/09/12 00:43:51;;;;;;;1.02;0.98;;;;;;;14.58;87.35;99060.50;4485825;32;34892;-73
2022/09/12 00:46:41;;;;;;;0.73;0.73;;;;;;;14.51;87.99;99056.31;4485906;32;35218;-73
2022/09/12 00:49:28;;;;;;;0.50;0.40;;;;;;;14.84;86.51;99064.91;4471808;32;34256;-72
2022/09/12 00:52:03;;;;;;;1.20;0.90;;;;;;;14.84;86.25;99064.03;4471846;32;34622;-73
2022/09/12 00:54:35;;;;;;;0.55;0.52;;;;;;;15.07;85.09;99066.78;4485776;32;35893;-72
2022/09/12 00:57:05;;;;;;;0.65;0.65;;;;;;;14.94;85.70;99065.44;4485770;32;34260;-73
2022/09/12 00:59:38;;;;;;;0.40;0.40;;;;;;;14.65;87.83;99063.75;4471635;32;34078;-72
2022/09/12 01:02:07;;;;;;;0.88;0.75;;;;;;;14.57;88.52;99069.22;4485657;32;34875;-72
2022/09/12 01:04:36;;;;;;;0.52;0.52;;;;;;;14.85;87.19;99063.13;4485537;32;35041;-72
2022/09/12 01:07:05;;;;;;;0.52;0.52;;;;;;;14.63;88.40;99065.56;4458447;32;33700;-72
2022/09/12 01:09:34;;;;;;;0.30;0.30;;;;;;;14.63;89.31;99062.94;4471497;32;32974;-72
2022/09/12 01:12:03;;;;;;;1.05;0.70;;;;;;;14.42;89.66;99065.31;4471680;32;33937;-73
2022/09/12 01:14:31;;;;;;;1.35;0.70;;;;;;;14.34;91.00;99075.16;4471343;32;35887;-72
2022/09/12 01:17:00;;;;;;;0.73;0.73;;;;;;;14.70;88.81;99072.34;4485285;32;34503;-71
2022/09/12 01:19:46;;;;;;;0.60;0.60;;;;;;;14.66;89.81;99070.72;4485450;32;34345;-72
2022/09/12 01:22:32;;;;;;;0.65;0.40;;;;;;;14.57;90.28;99070.06;4485471;32;34835;-73
2022/09/12 01:25:41;;;;;;;0.73;0.73;;;;;;;14.54;91.83;99067.56;4485313;32;35049;-72
2022/09/12 01:28:22;;;;;;;0.62;0.62;;;;;;;14.43;92.03;99084.50;4476165;32;34347;-72
2022/09/12 01:30:52;;;;;;;0.30;0.30;;;;;;;14.78;89.99;99081.66;4485320;32;33415;-72
2022/09/12 01:33:44;;;;;;;3.15;1.30;;;;;;;15.07;87.28;99081.63;4485533;32;33954;-72
2022/09/12 01:36:33;;;;;;;1.25;1.17;;;;;;;15.29;85.34;99082.62;4485193;32;34993;-72
2022/09/12 01:39:04;;;;;;;0.80;0.80;;;;;;;14.99;87.99;99084.50;4472736;32;34938;-72
2022/09/12 01:41:45;;;;;;;1.00;0.85;;;;;;;15.17;85.59;99078.63;4473207;32;33306;-73
2022/09/12 01:44:48;;;;;;;0.82;0.82;;;;;;;15.00;87.16;99069.63;4473272;32;34808;-72
2022/09/12 01:47:30;;;;;;;0.88;0.88;;;;;;;14.87;88.18;99063.94;4448147;32;34923;-72
2022/09/12 01:50:06;;;;;;;1.33;1.23;;;;;;;14.59;89.17;99070.94;4473330;32;35157;-72
2022/09/12 01:52:58;;;;;;;1.17;1.08;;;;;;;14.66;90.71;99068.09;4487215;32;33439;-72
2022/09/12 01:55:46;;;;;;;0.65;0.65;;;;;;;14.41;92.21;99068.84;4473062;32;34145;-72
2022/09/12 01:58:25;;;;;;;0.47;0.47;;;;;;;14.25;93.90;99071.06;4472979;32;35757;-72
2022/09/12 02:01:07;;;;;;;0.62;0.62;;;;;;;14.54;91.68;99078.03;4473068;32;35046;-72
2022/09/12 02:03:43;;;;;;;0.35;0.35;;;;;;;14.64;90.84;99080.41;4487011;32;34350;-72
2022/09/12 02:06:34;;;;;;;0.80;0.80;;;;;;;14.54;92.31;99085.03;4472964;32;33910;-72
2022/09/12 02:09:15;;;;;;;0.75;0.75;;;;;;;14.23;92.74;99081.59;4472986;32;35024;-72
2022/09/12 02:11:43;;;;;;;1.25;1.12;;;;;;;14.58;91.93;99076.22;4473048;32;34527;-72
2022/09/12 02:14:26;;;;;;;1.60;0.85;;;;;;;14.40;91.69;99077.63;4473041;32;34279;-72
2022/09/12 02:17:06;;;;;;;0.85;0.85;;;;;;;14.61;91.36;99078.72;4486893;32;34016;-72
2022/09/12 02:19:50;;;;;;;1.48;1.37;;;;;;;14.83;90.27;99078.06;4472877;32;35888;-72
2022/09/12 02:22:20;;;;;;;0.90;0.90;;;;;;;14.88;89.75;99077.00;4472971;32;34373;-80
2022/09/12 02:24:53;;;;;;;3.28;1.42;;;;;;;14.99;87.96;99074.03;4473019;32;32993;-73
2022/09/12 02:27:25;;;;;;;0.40;0.40;;;;;;;15.44;84.96;99069.88;4472899;32;34764;-73
2022/09/12 02:29:53;;;;;;;1.30;0.98;;;;;;;15.11;86.53;99072.75;4472776;32;34965;-72
2022/09/12 02:32:27;;;;;;;0.68;0.68;;;;;;;15.17;86.17;99067.28;4486783;32;35202;-72
2022/09/12 02:35:06;;;;;;;0.57;0.57;;;;;;;15.13;86.04;99073.56;4472649;32;33380;-72
2022/09/12 02:37:49;;;;;;;0.98;0.93;;;;;;;14.69;88.04;99081.13;4486872;32;34062;-72
2022/09/12 02:40:18;;;;;;;0.52;0.52;;;;;;;15.17;85.94;99080.41;4486797;32;35974;-82
2022/09/12 02:42:46;;;;;;;1.05;1.05;;;;;;;14.76;86.98;99080.88;4472679;32;34333;-72
2022/09/12 02:45:14;;;;;;;0.62;0.62;;;;;;;14.93;87.00;99074.22;4472682;32;33475;-72
2022/09/12 02:47:59;;;;;;;0.90;0.90;;;;;;;14.88;86.43;99086.63;4486728;32;34810;-72
2022/09/12 02:50:27;;;;;;;0.98;0.98;;;;;;;15.24;84.94;99083.69;4471942;32;35910;-73
2022/09/12 02:53:02;;;;;;;0.93;0.93;;;;;;;15.37;83.14;99085.00;4472666;32;35200;-72
2022/09/12 02:55:35;;;;;;;1.20;1.10;;;;;;;15.47;82.11;99081.13;4486715;32;33414;-72
2022/09/12 02:58:06;;;;;;;0.68;0.68;;;;;;;15.20;82.89;99071.59;4472580;32;34768;-73
2022/09/12 03:00:39;;;;;;;0.80;0.80;;;;;;;14.48;87.24;99078.22;4486857;32;35140;-73
2022/09/12 03:03:44;;;;;;;0.65;0.65;;;;;;;14.53;86.24;99081.56;4472547;32;35248;-72
2022/09/12 03:06:25;;;;;;;0.88;0.68;;;;;;;15.17;82.50;99086.50;4486527;32;33443;-81
2022/09/12 03:09:34;;;;;;;0.80;0.70;;;;;;;14.75;84.95;99088.78;4473607;32;34823;-81
2022/09/12 03:12:18;;;;;;;1.05;0.77;;;;;;;14.95;84.68;99083.75;4486447;32;33952;-72
2022/09/12 03:15:08;;;;;;;1.12;1.05;;;;;;;14.79;85.39;99078.16;4460099;32;34638;-80
2022/09/12 03:18:19;;;;;;;1.15;0.77;;;;;;;14.38;88.01;99076.78;4456839;32;32271;-80
2022/09/12 03:21:04;;;;;;;0.70;0.70;;;;;;;14.42;87.12;99083.66;4463739;32;34638;-77
2022/09/12 03:23:42;;;;;;;0.85;0.85;;;;;;;14.60;87.22;99087.50;4456730;32;35908;-79
2022/09/12 03:26:24;;;;;;;0.68;0.68;;;;;;;14.25;87.77;99091.16;4470771;32;35254;-80
2022/09/12 03:28:53;;;;;;;1.95;1.00;;;;;;;14.55;86.81;99089.38;4470708;32;33193;-72
2022/09/12 03:31:22;;;;;;;0.30;0.30;;;;;;;14.55;87.14;99087.59;4456809;32;34033;-73
2022/09/12 03:33:50;;;;;;;1.67;1.58;;;;;;;14.26;89.31;99085.00;4470641;32;35113;-73
2022/09/12 03:36:22;;;;;;;1.23;1.12;;;;;;;14.16;89.07;99087.91;4457039;32;34294;-73
2022/09/12 03:38:51;;;;;;;1.23;1.12;;;;;;;13.89;90.64;99096.56;4470671;32;34297;-73
2022/09/12 03:41:21;;;;;;;0.40;0.40;;;;;;;14.11;90.05;99094.19;4472766;32;34823;-82
2022/09/12 03:43:49;;;;;;;0.47;0.47;;;;;;;14.33;88.03;99087.41;4477170;32;35789;-85
2022/09/12 03:46:18;;;;;;;2.28;1.02;;;;;;;14.47;87.30;99089.62;4477344;32;34387;-78
2022/09/12 03:48:46;;;;;;;1.25;1.10;;;;;;;14.41;87.64;99089.78;4478634;32;33332;-73
2022/09/12 03:51:15;;;;;;;2.50;2.30;;;;;;;14.50;86.67;99080.78;4477891;32;33824;-81
2022/09/12 03:53:44;;;;;;;0.47;0.47;;;;;;;14.66;85.61;99086.44;4462357;32;34524;-76
2022/09/12 03:56:14;;;;;;;1.05;0.77;;;;;;;14.65;84.34;99087.34;4477728;32;33230;-73
2022/09/12 03:58:43;;;;;;;0.52;0.52;;;;;;;14.77;83.99;99100.06;4458603;32;32343;-80
2022/09/12 04:01:13;;;;;;;1.02;1.02;;;;;;;14.50;85.49;99086.03;4463657;32;34783;-74
2022/09/12 04:03:47;;;;;;;1.42;1.33;;;;;;;14.72;84.63;99100.22;4476834;32;35052;-85
2022/09/12 04:06:19;;;;;;;4.70;1.58;;;;;;;14.72;84.32;99102.00;4457191;32;34537;-79
2022/09/12 04:08:49;;;;;;;0.77;0.73;;;;;;;14.62;84.71;99105.81;4461233;32;34303;-74
2022/09/12 04:11:18;;;;;;;1.48;1.37;;;;;;;14.31;86.75;99106.69;4477027;32;33971;-83
2022/09/12 04:13:46;;;;;;;1.73;1.62;;;;;;;14.22;87.09;99108.69;4464414;32;35169;-80
2022/09/12 04:16:15;;;;;;;0.55;0.55;;;;;;;14.00;88.34;99110.22;4477568;32;35316;-75
2022/09/12 04:18:44;;;;;;;1.35;1.25;;;;;;;14.19;87.96;99108.78;4460638;32;34329;-75
2022/09/12 04:21:15;;;;;;;1.45;1.05;;;;;;;14.45;85.27;99104.50;4463163;32;33859;-75
2022/09/12 04:23:44;;;;;;;2.55;1.65;;;;;;;14.78;83.48;99112.28;4476064;32;35161;-80
2022/09/12 04:26:13;;;;;;;0.90;0.90;;;;;;;14.48;84.90;99104.41;4463435;32;34394;-77
2022/09/12 04:28:41;;;;;;;0.50;0.50;;;;;;;14.46;84.72;99103.63;4478133;32;34246;-82
2022/09/12 04:31:19;;;;;;;1.00;1.00;;;;;;;15.00;81.96;99101.09;4476814;32;35197;-82
2022/09/12 04:33:52;;;;;;;1.12;1.00;;;;;;;14.49;85.15;99093.06;4462836;32;35138;-79
2022/09/12 04:36:21;;;;;;;1.75;1.67;;;;;;;14.50;83.13;99092.13;4476663;32;34297;-80
2022/09/12 04:38:49;;;;;;;0.73;0.73;;;;;;;14.60;83.85;99093.59;4474972;32;33480;-81
2022/09/12 04:41:27;;;;;;;1.42;1.17;;;;;;;14.70;82.98;99099.41;4464199;32;34735;-77
2022/09/12 04:44:01;;;;;;;1.27;1.20;;;;;;;15.02;80.60;99105.41;4478107;32;35875;-73
2022/09/12 04:46:30;;;;;;;1.17;0.70;;;;;;;14.65;82.16;99101.31;4485866;32;35365;-74
2022/09/12 04:48:59;;;;;;;1.50;1.40;;;;;;;14.99;81.03;99102.88;4485673;32;32689;-74
2022/09/12 04:51:32;;;;;;;1.00;1.00;;;;;;;14.19;85.39;99100.91;4475660;32;33609;-73
2022/09/12 04:54:03;;;;;;;1.60;1.10;;;;;;;14.83;81.71;99105.12;4469921;32;35766;-73
2022/09/12 04:56:42;;;;;;;1.12;1.02;;;;;;;15.00;81.66;99111.56;4470248;32;34558;-74
2022/09/12 04:59:50;;;;;;;0.77;0.77;;;;;;;14.28;85.33;99106.81;4473601;31;33556;-77
2022/09/12 05:02:20;;;;;;;0.45;0.45;;;;;;;14.87;84.21;99119.00;4481153;32;33900;-78
2022/09/12 05:04:49;;;;;;;2.60;1.80;;;;;;;15.10;82.94;99118.25;4469863;32;35257;-73
2022/09/12 05:07:18;;;;;;;1.05;1.00;;;;;;;14.93;83.97;99111.78;4469892;32;34574;-72
2022/09/12 05:09:47;;;;;;;0.93;0.90;;;;;;;14.91;83.81;99118.84;4479505;32;34560;-75
2022/09/12 05:12:16;;;;;;;0.43;0.43;;;;;;;15.03;83.93;99120.19;4484199;32;33832;-73
2022/09/12 05:14:45;;;;;;;1.35;1.05;;;;;;;15.19;83.46;99122.31;4485428;32;35084;-74
2022/09/12 05:17:15;;;;;;;1.35;1.25;;;;;;;15.34;82.94;99117.44;4469939;32;34548;-74
2022/09/12 05:19:44;;;;;;;0.85;0.85;;;;;;;15.54;81.66;99123.75;4469751;32;33416;-78
2022/09/12 05:22:12;;;;;;;1.10;1.00;;;;;;;15.62;81.16;99132.22;4472611;32;34875;-74
2022/09/12 05:24:42;;;;;;;1.42;1.33;;;;;;;15.97;79.09;99143.28;4485267;32;35128;-74
2022/09/12 05:27:17;;;;;;;1.33;1.23;;;;;;;15.57;81.02;99146.44;4485395;32;34288;-78
2022/09/12 05:29:45;;;;;;;1.17;1.10;;;;;;;15.81;80.29;99137.72;4485274;32;33524;-74
2022/09/12 05:32:13;;;;;;;1.83;0.50;;;;;;;16.46;77.00;99140.59;4484992;32;34088;-75
2022/09/12 05:34:42;;;;;;;2.53;1.70;;;;;;;16.41;77.59;99143.44;4485082;32;35111;-74
2022/09/12 05:37:10;;;;;;;1.35;1.05;;;;;;;17.90;70.28;99140.97;4485256;32;34484;-73
2022/09/12 05:39:39;;;;;;;1.75;1.65;;;;;;;17.05;73.12;99141.84;4485189;32;33578;-73
2022/09/12 05:42:08;;;;;;;0.70;0.70;;;;;;;17.13;73.21;99152.91;4482900;31;34872;-79
2022/09/12 05:44:37;;;;;;;0.70;0.70;;;;;;;17.13;73.74;99152.91;4470449;32;34267;-78
2022/09/12 05:47:06;;;;;;;1.00;0.82;;;;;;;17.15;73.06;99144.94;4484792;32;34445;-77
2022/09/12 05:49:46;;;;;;;;;;;;;;;;;;;;;
2022/09/12 05:52:32;;;;;;;1.42;1.33;;;;;;;17.11;72.69;99149.47;4482467;32;34548;-73
2022/09/12 05:55:05;;;;;;;0.70;0.70;;;;;;;17.08;74.13;99149.59;4484736;32;35895;-76
2022/09/12 05:58:01;;;;;;;1.48;0.80;;;;;;;17.46;72.47;99151.59;4484560;32;35289;-80
2022/09/12 06:00:33;;;;;;;3.00;1.05;;;;;;;18.01;69.92;99151.88;4484732;32;34502;-80
2022/09/12 06:03:02;;;;;;;2.45;2.28;;;;;;;17.63;70.90;99157.84;4484795;32;34138;-73
2022/09/12 06:05:32;;;;;;;0.35;0.35;;;;;;;17.58;71.39;99153.72;4484683;32;34961;-80
2022/09/12 06:08:00;;;;;;;2.37;1.42;;;;;;;17.90;69.95;99157.59;4483463;32;34087;-73
2022/09/12 06:10:29;;;;;;;0.98;0.95;;;;;;;17.87;70.70;99164.78;4484852;32;33553;-75
2022/09/12 06:12:57;;;;;;;2.00;1.85;;;;;;;17.86;70.23;99157.78;4484740;32;33886;-73
2022/09/12 06:15:26;;;;;;;1.10;1.08;;;;;;;18.02;69.54;99160.63;4484379;32;35238;-73
2022/09/12 06:17:55;;;;;;;4.70;1.98;;;;;;;17.85;72.32;99166.59;4484611;32;35071;-73
2022/09/12 06:20:25;;;;;;;2.00;1.23;;;;;;;18.55;69.20;99165.25;4484471;32;33603;-73
2022/09/12 06:22:53;;;;;;;0.73;0.73;;;;;;;18.23;69.52;99167.59;4484343;32;33965;-73
2022/09/12 06:25:22;;;;;;;1.73;1.50;;;;;;;18.30;70.53;99166.38;4485582;32;35903;-72
2022/09/12 06:27:50;;;;;;;1.25;0.85;;;;;;;18.56;69.46;99174.88;4472914;32;34431;-73
2022/09/12 06:30:18;;;;;;;0.95;0.85;;;;;;;18.42;70.24;99167.59;4486839;32;34335;-72
2022/09/12 06:32:52;;;;;;;0.57;0.57;;;;;;;19.05;68.36;99164.66;4486886;32;33567;-73
2022/09/12 06:35:22;;;;;;;4.55;1.33;;;;;;;19.35;66.66;99163.25;4486800;32;35109;-73
2022/09/12 06:37:51;;;;;;;0.93;0.62;;;;;;;19.23;65.36;99162.06;4486688;32;35220;-73
2022/09/12 06:40:21;;;;;;;1.50;0.95;;;;;;;19.37;65.83;99170.16;4486789;32;33569;-73
2022/09/12 06:42:50;;;;;;;0.82;0.82;;;;;;;19.57;65.16;99168.28;4486722;32;33979;-73
2022/09/12 06:45:26;;;;;;;1.35;0.68;;;;;;;19.96;63.38;99164.56;4486939;32;35114;-73
2022/09/12 06:48:19;;;;;;;0.73;0.73;;;;;;;19.33;63.88;99168.59;4471063;32;33332;-79
2022/09/12 06:51:12;;;;;;;1.65;0.95;;;;;;;19.04;65.85;99176.16;4470837;32;34438;-78
2022/09/12 06:53:42;;;;;;;0.88;0.88;;;;;;;19.78;63.42;99175.16;4470739;32;33738;-78
2022/09/12 06:56:27;;;;;;;1.62;1.48;;;;;;;19.83;62.93;99170.50;4470779;32;35071;-79
2022/09/12 06:59:07;;;;;;;0.93;0.93;;;;;;;19.22;64.99;99170.91;4470808;32;34418;-79
2022/09/12 07:01:44;;;;;;;1.85;1.10;;;;;;;19.41;64.63;99165.56;4465596;32;33493;-79
2022/09/12 07:04:33;;;;;;;0.95;0.90;;;;;;;20.31;63.90;99170.63;4485655;32;34727;-76
2022/09/12 07:07:02;;;;;;;4.18;2.47;;;;;;;20.18;64.03;99175.72;4486271;32;34714;-78
2022/09/12 07:09:30;;;;;;;0.85;0.85;;;;;;;20.34;62.20;99165.19;4486412;32;34804;-77
2022/09/12 07:11:58;;;;;;;1.75;1.42;;;;;;;20.46;62.66;99172.47;4486372;32;34026;-74
2022/09/12 07:14:27;;;;;;;1.05;0.95;;;;;;;20.38;61.35;99176.44;4486363;32;34844;-73
2022/09/12 07:16:56;;;;;;;0.88;0.88;;;;;;;19.87;62.49;99179.13;4486425;32;36036;-73
2022/09/12 07:19:25;;;;;;;1.95;1.15;;;;;;;19.61;65.00;99170.72;4486565;32;34550;-73
2022/09/12 07:21:53;;;;;;;0.45;0.45;;;;;;;19.88;62.82;99173.75;4485197;32;34505;-74
2022/09/12 07:24:26;;;;;;;0.50;0.50;;;;;;;20.32;61.29;99171.50;4486328;32;33886;-74
2022/09/12 07:26:56;;;;;;;0.60;0.55;;;;;;;20.61;61.61;99172.56;4486362;32;35951;-74
2022/09/12 07:29:25;;;;;;;0.93;0.93;;;;;;;21.08;58.98;99176.19;4486395;32;34311;-74
2022/09/12 07:32:10;;;;;;;1.08;0.90;;;;;;;21.88;56.38;99172.44;4486511;32;33559;-74
2022/09/12 07:34:38;;;;;;;2.22;1.00;;;;;;;21.17;58.53;99178.31;4486328;32;34906;-76
2022/09/12 07:37:06;;;;;;;0.47;0.47;;;;;;;21.53;58.14;99185.97;4485960;32;35897;-73
2022/09/12 07:39:35;;;;;;;0.80;0.80;;;;;;;21.71;56.87;99175.22;4486250;32;34724;-74
2022/09/12 07:42:03;;;;;;;1.20;1.08;;;;;;;21.38;55.71;99184.16;4486284;32;33535;-74
2022/09/12 07:44:32;;;;;;;1.50;1.40;;;;;;;21.23;57.77;99180.63;4486119;32;32923;-73
2022/09/12 07:47:01;;;;;;;0.80;0.77;;;;;;;22.02;54.87;99189.28;4486170;32;35179;-74
2022/09/12 07:49:29;;;;;;;3.20;1.60;;;;;;;21.62;57.74;99189.88;4486232;32;35262;-74
2022/09/12 07:51:58;;;;;;;1.35;1.25;;;;;;;21.71;56.50;99191.97;4486222;32;34527;-75
2022/09/12 07:54:28;;;;;;;1.05;0.95;;;;;;;22.32;53.59;99192.75;4486320;32;33869;-72
2022/09/12 07:56:57;;;;;;;0.68;0.68;;;;;;;22.35;54.76;99181.09;4486084;32;34906;-73
2022/09/12 07:59:25;;;;;;;0.47;0.47;;;;;;;22.55;54.53;99186.97;4486197;32;35265;-74
2022/09/12 08:02:14;;;;;;;0.60;0.60;;;;;;;21.54;57.69;99190.31;4486219;32;33505;-73
2022/09/12 08:04:46;;;;;;;0.30;0.30;;;;;;;21.81;54.44;99183.47;4472336;32;34833;-75
2022/09/12 08:07:16;;;;;;;0.55;0.55;;;;;;;21.35;55.05;99184.34;4472088;32;35869;-75
2022/09/12 08:09:47;;;;;;;0.45;0.45;;;;;;;21.93;55.54;99180.09;4484274;31;34121;-80
2022/09/12 08:12:31;;;;;;;0.80;0.80;;;;;;;22.09;55.68;99186.16;4485917;32;32934;-79
2022/09/12 08:14:59;;;;;;;2.03;1.10;;;;;;;21.53;55.53;99193.03;4485966;32;33782;-78
2022/09/12 08:17:28;;;;;;;0.47;0.47;;;;;;;22.40;53.31;99191.44;4485895;32;34863;-79
2022/09/12 08:19:58;;;;;;;1.23;0.93;;;;;;;22.48;53.92;99187.34;4485687;32;34529;-79
2022/09/12 08:22:30;;;;;;;0.40;0.40;;;;;;;21.72;54.12;99183.06;4485936;32;33276;-80
2022/09/12 08:24:58;;;;;;;1.00;0.98;;;;;;;21.26;53.85;99191.00;4485938;32;33949;-76
2022/09/12 08:27:27;;;;;;;1.50;0.90;;;;;;;22.49;52.94;99191.69;4485705;32;35879;-79
2022/09/12 08:29:56;;;;;;;0.45;0.45;;;;;;;22.47;54.74;99185.66;4485689;32;35012;-76
2022/09/12 08:32:24;;;;;;;1.45;1.27;;;;;;;23.41;51.22;99187.63;4485952;32;33603;-75
2022/09/12 08:34:52;;;;;;;0.40;0.40;;;;;;;23.09;51.20;99200.37;4486260;32;34313;-74
2022/09/12 08:37:20;;;;;;;0.20;0.20;;;;;;;23.14;49.67;99184.13;4486013;32;35017;-74
2022/09/12 08:39:49;;;;;;;0.40;0.40;;;;;;;23.06;50.27;99195.25;4485874;32;35162;-74
2022/09/12 08:42:32;;;;;;;0.70;0.70;;;;;;;23.45;50.97;99196.22;4484902;32;33508;-74
2022/09/12 08:45:19;;;;;;;0.55;0.55;;;;;;;23.11;50.31;99202.91;4471689;32;33714;-74
2022/09/12 08:47:48;;;;;;;0.90;0.82;;;;;;;23.51;49.39;99192.31;4471039;32;35310;-74
2022/09/12 08:50:18;;;;;;;0.52;0.50;;;;;;;23.03;48.92;99196.28;4471798;32;34394;-74
2022/09/12 08:53:02;;;;;;;0.50;0.50;;;;;;;23.22;48.10;99197.75;4485865;32;32718;-74
2022/09/12 08:55:36;;;;;;;0.65;0.62;;;;;;;23.23;48.52;99189.69;4471870;32;34864;-74
2022/09/12 08:58:12;;;;;;;0.40;0.40;;;;;;;23.59;47.79;99188.19;4471699;32;35123;-74
2022/09/12 09:01:19;;;;;;;0.30;0.30;;;;;;;23.70;47.23;99187.50;4486108;32;35267;-74
2022/09/12 09:04:09;;;;;;;0.32;0.32;;;;;;;23.50;48.54;99177.34;4474575;32;33435;-75
2022/09/12 09:06:59;;;;;;;1.35;0.82;;;;;;;23.63;48.29;99186.16;4485701;32;34759;-75
2022/09/12 09:09:30;;;;;;;0.52;0.52;;;;;;;24.34;47.09;99173.41;4485666;32;34923;-75
2022/09/12 09:12:47;;;;;;;0.45;0.45;;;;;;;24.18;48.52;99176.28;4483626;31;34480;-79
2022/09/12 09:15:39;;;;;;;0.45;0.40;;;;;;;24.76;47.41;99177.50;4479946;32;164670;-77
2022/09/12 09:18:23;;;;;;;0.90;0.85;;;;;;;22.97;46.82;99178.06;4471361;32;34783;-78
2022/09/12 09:20:55;;;;;;;0.45;0.45;;;;;;;24.16;45.82;99175.50;4471224;32;34140;-79
2022/09/12 09:23:27;;;;;;;0.32;0.32;;;;;;;23.96;45.63;99172.41;4471144;32;34408;-79
2022/09/12 09:25:58;;;;;;;1.33;0.70;;;;;;;24.53;47.99;99164.94;4485174;32;33406;-77
2022/09/12 09:28:38;;;;;;;0.32;0.32;;;;;;;24.59;47.75;99159.22;4485208;32;33940;-75
2022/09/12 09:31:16;;;;;;;0.22;0.22;;;;;;;24.97;45.20;99168.88;4485042;32;35979;-78
2022/09/12 09:33:50;;;;;;;0.95;0.77;;;;;;;24.72;46.47;99173.34;4471075;32;35309;-78
2022/09/12 09:36:50;;;;;;;0.47;0.47;;;;;;;23.72;46.41;99179.38;4470890;32;33156;-74
2022/09/12 09:39:30;;;;;;;0.75;0.57;;;;;;;25.04;45.71;99175.47;4471347;32;34006;-74
2022/09/12 09:42:19;;;;;;;1.20;0.98;;;;;;;24.95;44.12;99182.34;4471106;32;35962;-74
2022/09/12 09:44:47;;;;;;;1.50;1.40;;;;;;;24.99;45.83;99180.31;4457780;32;32812;-74
2022/09/12 09:47:17;;;;;;;2.12;1.15;;;;;;;25.12;45.02;99178.44;4469877;32;34238;-74
2022/09/12 09:49:46;;;;;;;0.20;0.20;;;;;;;24.99;46.16;99188.31;4484247;32;33622;-73
2022/09/12 09:52:20;;;;;;;0.43;0.43;;;;;;;25.21;45.00;99186.72;4485039;32;36028;-74
2022/09/12 09:54:53;;;;;;;0.20;0.20;;;;;;;25.32;43.21;99186.78;4470997;32;35153;-74
2022/09/12 09:57:34;;;;;;;0.77;0.77;;;;;;;24.76;46.20;99179.28;4471202;32;33458;-75
2022/09/12 10:00:21;;;;;;;0.60;0.60;;;;;;;24.77;46.82;99173.84;4486517;32;34649;-75
2022/09/12 10:03:07;;;;;;;1.50;1.08;;;;;;;24.57;44.80;99179.78;4487024;32;35040;-76
2022/09/12 10:06:05;;;;;;;0.45;0.45;;;;;;;23.71;46.10;99170.56;4487035;32;35025;-75
2022/09/12 10:08:36;;;;;;;2.17;0.55;;;;;;;23.51;47.68;99165.72;4473262;32;34287;-79
2022/09/12 10:11:14;;;;;;;0.47;0.47;;;;;;;24.35;47.25;99167.09;4473070;32;33126;-76
2022/09/12 10:13:53;;;;;;;0.70;0.70;;;;;;;25.40;45.71;99159.59;4486946;32;35924;-79
2022/09/12 10:16:32;;;;;;;0.95;0.82;;;;;;;25.35;46.28;99151.91;4486640;32;34564;-73
2022/09/12 10:19:20;;;;;;;0.57;0.47;;;;;;;25.12;46.22;99157.13;4473590;32;33740;-76
2022/09/12 10:22:00;;;;;;;0.30;0.30;;;;;;;25.23;43.07;99163.47;4470643;31;34782;-76
2022/09/12 10:25:03;;;;;;;0.50;0.50;;;;;;;24.60;44.58;99166.22;4485789;31;34801;-75
2022/09/12 10:27:58;;;;;;;0.32;0.32;;;;;;;23.19;48.03;99174.03;4486698;32;34370;-79
2022/09/12 10:30:33;;;;;;;0.32;0.32;;;;;;;22.69;49.11;99173.66;4483993;31;32470;-76
2022/09/12 10:33:12;;;;;;;0.73;0.32;;;;;;;22.07;51.60;99172.16;4485115;32;34822;-77
2022/09/12 10:35:47;;;;;;;0.57;0.57;;;;;;;22.11;51.63;99163.06;4472844;32;35260;-78
2022/09/12 10:38:25;;;;;;;0.50;0.50;;;;;;;21.71;55.26;99165.47;4472570;32;34515;-80
2022/09/12 10:41:13;;;;;;;0.68;0.68;;;;;;;22.29;51.08;99176.19;4472684;32;33406;-75
2022/09/12 10:43:41;;;;;;;5.07;1.25;;;;;;;21.94;52.42;99173.84;4472542;32;34889;-74
2022/09/12 10:46:21;;;;;;;0.85;0.80;;;;;;;21.99;52.32;99168.25;4486611;32;35025;-81
2022/09/12 10:49:21;;;;;;;0.45;0.45;;;;;;;21.18;54.90;99172.09;4472508;32;35341;-74
2022/09/12 10:51:52;;;;;;;0.30;0.30;;;;;;;21.48;54.03;99173.94;4486539;32;33574;-75
2022/09/12 10:54:25;;;;;;;0.40;0.40;;;;;;;21.47;54.10;99172.22;4486760;32;34826;-73
2022/09/12 10:57:25;;;;;;;0.47;0.40;;;;;;;21.61;53.91;99168.75;4486365;32;35133;-79
2022/09/12 11:00:29;;;;;;;1.08;0.90;;;;;;;21.38;54.22;99178.87;4486482;32;34388;-78
2022/09/12 11:03:14;;;;;;;0.25;0.25;;;;;;;21.40;53.89;99167.22;4453905;32;34261;-74
2022/09/12 11:05:45;;;;;;;0.30;0.30;;;;;;;21.77;53.82;99169.56;4472755;32;33855;-74
2022/09/12 11:08:17;;;;;;;0.25;0.25;;;;;;;21.13;56.31;99163.53;4486516;32;34990;-75
2022/09/12 11:10:53;;;;;;;3.28;0.68;;;;;;;20.90;55.92;99167.50;4486089;32;34214;-81
2022/09/12 11:13:44;;;;;;;;;;;;;;;21.09;55.68;99164.63;4486795;32;34500;-81
2022/09/12 11:16:35;;;;;;;0.40;0.40;;;;;;;21.29;55.31;99168.81;4476839;32;34284;-82
2022/09/12 11:19:36;;;;;;;0.45;0.45;;;;;;;21.27;53.69;99171.56;4486558;32;35908;-75
2022/09/12 11:22:18;;;;;;;0.90;0.90;;;;;;;20.67;54.61;99166.12;4472392;32;34498;-81
2022/09/12 11:25:09;;;;;;;0.50;0.50;;;;;;;20.12;57.21;99162.84;4472484;32;33597;-75
2022/09/12 11:28:00;;;;;;;0.55;0.55;;;;;;;20.39;56.01;99168.44;4472470;32;34757;-76
2022/09/12 11:30:36;;;;;;;0.50;0.50;;;;;;;20.25;57.16;99166.53;4472269;32;34737;-74
2022/09/12 11:33:23;;;;;;;0.68;0.68;;;;;;;20.63;54.84;99166.28;4472431;32;35154;-75
2022/09/12 11:35:52;;;;;;;0.35;0.35;;;;;;;20.63;54.56;99168.94;4472382;32;34327;-75
2022/09/12 11:38:44;;;;;;;0.40;0.40;;;;;;;20.43;55.74;99163.84;4486291;32;33290;-82
2022/09/12 11:41:27;;;;;;;0.50;0.50;;;;;;;20.71;54.78;99168.50;4472306;32;35996;-74
2022/09/12 11:44:03;;;;;;;1.70;1.42;;;;;;;20.63;56.43;99166.28;4472319;32;34543;-74
2022/09/12 11:46:37;;;;;;;0.75;0.75;;;;;;;20.14;57.21;99171.56;4486310;32;34349;-75
2022/09/12 11:49:16;;;;;;;0.30;0.30;;;;;;;19.91;58.41;99169.22;4486324;32;34018;-74
2022/09/12 11:51:55;;;;;;;0.88;0.73;;;;;;;20.27;58.57;99169.09;4472385;32;35141;-74
2022/09/12 11:54:58;;;;;;;17.30;7.80;;;;;;;20.11;58.98;99160.28;4472446;32;34311;-75
2022/09/12 11:57:33;;;;;;;14.30;6.10;;;;;;;20.23;57.97;99163.13;4472427;32;33444;-75
2022/09/12 12:00:37;;;;;;;6.15;1.75;;;;;;;20.06;60.21;99160.50;4472212;32;34715;-75
2022/09/12 12:03:06;;;;;;;0.40;0.40;;;;;;;20.15;59.05;99159.19;4462313;32;35107;-75
2022/09/12 12:05:54;;;;;;;1.20;0.88;;;;;;;20.43;60.21;99150.62;4486063;32;35246;-74
2022/09/12 12:08:25;;;;;;;6.60;2.33;;;;;;;20.70;57.92;99152.72;4472179;32;33378;-74
2022/09/12 12:10:59;;;;;;;0.75;0.75;;;;;;;20.82;58.05;99144.97;4472117;32;34050;-74
2022/09/12 12:13:44;;;;;;;0.50;0.50;;;;;;;20.41;57.17;99140.13;4472329;32;35021;-75
2022/09/12 12:16:14;;;;;;;0.57;0.57;;;;;;;20.81;56.97;99145.03;4485778;32;34470;-74